createdAt,value
2018-11-29T00:00:36.936Z,87.22
2018-11-29T00:03:07.924Z,87.46
2018-11-29T00:05:38.966Z,87.14
2018-11-29T00:08:09.214Z,87.14
2018-11-29T00:10:39.305Z,87.17
2018-11-29T00:13:09.538Z,87.44
2018-11-29T00:15:39.621Z,87.52
2018-11-29T00:18:10.374Z,87.29
2018-11-29T00:20:40.834Z,87.30
2018-11-29T00:23:10.842Z,87.42
2018-11-29T00:25:40.986Z,87.53
2018-11-29T00:28:11.283Z,87.44
2018-11-29T00:30:41.571Z,87.17
2018-11-29T00:33:11.759Z,87.12
2018-11-29T00:35:41.856Z,86.96
2018-11-29T00:38:12.096Z,87.40
2018-11-29T00:40:42.105Z,87.06
2018-11-29T00:43:12.331Z,87.02
2018-11-29T00:45:42.241Z,87.01
2018-11-29T00:48:14.353Z,86.90
2018-11-29T00:50:44.861Z,86.12
2018-11-29T00:53:14.979Z,86.06
2018-11-29T00:55:45.062Z,86.32
2018-11-29T00:58:15.140Z,86.18
2018-11-29T01:00:45.480Z,85.74
2018-11-29T01:03:15.811Z,85.96
2018-11-29T01:05:45.914Z,85.74
2018-11-29T01:08:16.562Z,85.58
2018-11-29T01:10:46.767Z,85.12
2018-11-29T01:13:16.789Z,85.30
2018-11-29T01:15:47.035Z,84.54
2018-11-29T01:18:17.334Z,84.93
2018-11-29T01:20:47.581Z,84.61
2018-11-29T01:23:17.733Z,84.81
2018-11-29T01:25:47.959Z,84.94
2018-11-29T01:28:18.344Z,84.89
2018-11-29T01:30:48.524Z,84.85
2018-11-29T01:33:18.562Z,84.88
2018-11-29T01:35:48.626Z,85.13
2018-11-29T01:38:18.951Z,85.29
2018-11-29T01:40:49.268Z,85.28
2018-11-29T01:43:19.430Z,85.36
2018-11-29T01:45:50.500Z,85.52
2018-11-29T01:48:20.568Z,85.14
2018-11-29T01:50:51.158Z,84.83
2018-11-29T01:53:21.248Z,84.90
2018-11-29T01:55:51.471Z,84.96
2018-11-29T01:58:21.960Z,84.95
2018-11-29T02:00:52.128Z,85.02
2018-11-29T02:03:22.697Z,85.11
2018-11-29T02:05:52.912Z,85.21
2018-11-29T02:08:23.079Z,85.66
2018-11-29T02:10:53.497Z,85.29
2018-11-29T02:13:23.788Z,84.80
2018-11-29T02:15:53.809Z,85.71
2018-11-29T02:18:23.878Z,85.25
2018-11-29T02:20:54.054Z,85.41
2018-11-29T02:23:24.307Z,85.21
2018-11-29T02:25:54.620Z,85.25
2018-11-29T02:28:25.467Z,84.97
2018-11-29T02:30:55.367Z,85.14
2018-11-29T02:33:25.711Z,85.33
2018-11-29T02:35:55.841Z,85.35
2018-11-29T02:38:25.825Z,84.87
2018-11-29T02:40:55.797Z,85.47
2018-11-29T02:43:26.281Z,85.22
2018-11-29T02:45:56.480Z,85.24
2018-11-29T02:48:26.685Z,84.90
2018-11-29T02:50:56.800Z,85.23
2018-11-29T02:53:27.055Z,85.15
2018-11-29T02:55:57.268Z,85.37
2018-11-29T02:58:27.511Z,84.90
2018-11-29T03:00:57.837Z,85.00
2018-11-29T03:03:28.049Z,85.45
2018-11-29T03:05:58.251Z,84.74
2018-11-29T03:08:28.519Z,85.16
2018-11-29T03:10:59.583Z,85.32
2018-11-29T03:13:29.893Z,85.30
2018-11-29T03:16:00.439Z,85.04
2018-11-29T03:18:31.030Z,84.85
2018-11-29T03:21:01.221Z,84.70
2018-11-29T03:23:31.452Z,85.01
2018-11-29T03:26:02.543Z,84.54
2018-11-29T03:28:32.659Z,84.45
2018-11-29T03:31:02.936Z,84.63
2018-11-29T03:33:33.237Z,84.77
2018-11-29T03:36:03.078Z,84.74
2018-11-29T03:38:33.347Z,84.66
2018-11-29T03:41:03.988Z,84.45
2018-11-29T03:43:34.053Z,84.40
2018-11-29T03:46:04.468Z,84.16
2018-11-29T03:48:34.665Z,84.40
2018-11-29T03:51:04.998Z,84.45
2018-11-29T03:53:35.334Z,84.56
2018-11-29T03:56:05.632Z,84.59
2018-11-29T03:58:35.693Z,84.64
2018-11-29T04:01:05.915Z,84.02
2018-11-29T04:03:35.823Z,83.90
2018-11-29T04:06:05.906Z,83.77
2018-11-29T04:08:36.033Z,83.97
2018-11-29T04:11:06.291Z,84.04
2018-11-29T04:13:37.460Z,83.73
2018-11-29T04:16:08.033Z,83.96
2018-11-29T04:18:38.420Z,83.76
2018-11-29T04:21:08.717Z,83.55
2018-11-29T04:23:38.883Z,83.65
2018-11-29T04:26:09.015Z,83.81
2018-11-29T04:28:38.980Z,84.05
2018-11-29T04:31:09.300Z,84.07
2018-11-29T04:33:39.623Z,83.73
2018-11-29T04:36:09.867Z,83.85
2018-11-29T04:38:40.411Z,83.97
2018-11-29T04:41:10.953Z,83.50
2018-11-29T04:43:42.174Z,83.79
2018-11-29T04:46:48.598Z,83.46
2018-11-29T04:49:19.055Z,83.81
2018-11-29T04:51:49.276Z,83.40
2018-11-29T04:54:19.318Z,83.37
2018-11-29T04:56:50.075Z,83.75
2018-11-29T04:59:20.504Z,83.66
2018-11-29T05:01:50.602Z,83.60
2018-11-29T05:04:21.440Z,83.42
2018-11-29T05:06:51.548Z,83.46
2018-11-29T05:09:21.650Z,83.55
2018-11-29T05:11:52.170Z,83.24
2018-11-29T05:14:22.598Z,83.25
2018-11-29T05:16:52.392Z,83.37
2018-11-29T05:19:22.562Z,82.71
2018-11-29T05:21:52.657Z,82.59
2018-11-29T05:24:22.873Z,82.75
2018-11-29T05:26:53.085Z,82.44
2018-11-29T05:29:23.331Z,82.45
2018-11-29T05:31:53.569Z,82.82
2018-11-29T05:34:23.635Z,82.97
2018-11-29T05:36:53.687Z,82.29
2018-11-29T05:39:23.765Z,82.48
2018-11-29T05:41:54.292Z,82.11
2018-11-29T05:44:24.522Z,81.78
2018-11-29T05:46:55.231Z,81.58
2018-11-29T05:49:25.657Z,81.34
2018-11-29T05:51:56.578Z,81.01
2018-11-29T05:54:26.696Z,80.79
2018-11-29T05:56:57.214Z,81.38
2018-11-29T05:59:28.638Z,80.71
2018-11-29T06:01:58.989Z,80.68
2018-11-29T06:04:30.690Z,80.57
2018-11-29T06:07:00.800Z,80.60
2018-11-29T06:09:31.781Z,80.47
2018-11-29T06:12:02.184Z,80.31
2018-11-29T06:14:32.949Z,80.10
2018-11-29T06:17:02.975Z,80.00
2018-11-29T06:19:34.954Z,80.30
2018-11-29T06:22:05.054Z,80.44
2018-11-29T06:24:35.325Z,80.06
2018-11-29T06:27:05.453Z,79.97
2018-11-29T06:29:36.435Z,80.02
2018-11-29T06:32:06.841Z,79.76
2018-11-29T06:34:36.943Z,79.57
2018-11-29T06:37:07.073Z,79.59
2018-11-29T06:39:37.618Z,79.93
2018-11-29T06:42:08.144Z,78.85
2018-11-29T06:44:39.180Z,78.64
2018-11-29T06:47:10.345Z,79.25
2018-11-29T06:49:40.552Z,78.81
2018-11-29T06:52:11.487Z,78.45
2018-11-29T06:54:41.747Z,78.59
2018-11-29T07:20:02.481Z,77.84
2018-11-29T07:22:32.566Z,77.59
2018-11-29T07:25:02.992Z,77.43
2018-11-29T07:27:33.070Z,77.50
2018-11-29T07:30:03.251Z,77.17
2018-11-29T07:32:34.351Z,77.23
2018-11-29T07:35:04.614Z,77.37
2018-11-29T07:37:34.802Z,77.05
2018-11-29T07:40:05.023Z,76.98
2018-11-29T07:42:35.194Z,76.78
2018-11-29T07:45:05.735Z,77.21
2018-11-29T07:47:35.957Z,77.09
2018-11-29T07:50:07.053Z,76.66
2018-11-29T07:52:37.319Z,76.22
2018-11-29T07:55:10.133Z,76.61
2018-11-29T07:57:40.559Z,77.04
2018-11-29T08:00:13.519Z,76.24
2018-11-29T08:02:44.851Z,76.59
2018-11-29T08:05:15.705Z,76.46
2018-11-29T08:07:47.973Z,76.52
2018-11-29T08:10:18.613Z,76.30
2018-11-29T08:12:48.827Z,75.87
2018-11-29T08:15:21.275Z,76.24
2018-11-29T08:17:51.452Z,75.71
2018-11-29T08:20:22.458Z,75.55
2018-11-29T08:22:53.123Z,75.62
2018-11-29T08:25:24.237Z,75.79
2018-11-29T08:27:54.332Z,75.42
2018-11-29T08:30:24.924Z,75.01
2018-11-29T08:32:55.165Z,74.53
2018-11-29T08:35:26.497Z,74.75
2018-11-29T08:37:56.721Z,75.36
2018-11-29T08:40:27.031Z,75.40
2018-11-29T08:42:57.217Z,74.06
2018-11-29T08:45:27.543Z,73.69
2018-11-29T08:47:57.921Z,73.90
2018-11-29T08:50:28.102Z,73.01
2018-11-29T08:52:59.616Z,73.34
2018-11-29T08:55:29.761Z,74.01
2018-11-29T08:57:59.906Z,73.12
2018-11-29T09:00:30.311Z,72.83
2018-11-29T09:03:00.461Z,73.73
2018-11-29T09:05:33.962Z,72.61
2018-11-29T09:08:01.677Z,72.35
2018-11-29T09:10:32.054Z,71.53
2018-11-29T09:13:02.229Z,71.61
2018-11-29T09:15:32.280Z,71.53
2018-11-29T09:18:02.352Z,70.58
2018-11-29T09:20:32.615Z,71.25
2018-11-29T09:23:02.667Z,71.45
2018-11-29T09:25:32.858Z,70.30
2018-11-29T09:28:03.369Z,70.53
2018-11-29T09:30:33.456Z,70.40
2018-11-29T09:33:03.621Z,71.28
2018-11-29T09:35:33.759Z,70.79
2018-11-29T09:38:04.206Z,70.98
2018-11-29T09:40:34.697Z,71.10
2018-11-29T09:43:04.980Z,68.75
2018-11-29T09:45:35.143Z,70.66
2018-11-29T09:48:05.315Z,70.44
2018-11-29T09:50:36.334Z,70.71
2018-11-29T09:53:06.688Z,70.95
2018-11-29T09:55:36.988Z,70.59
2018-11-29T09:58:08.018Z,71.00
2018-11-29T10:00:39.326Z,71.21
2018-11-29T10:03:10.500Z,71.31
2018-11-29T10:05:40.669Z,71.32
2018-11-29T10:08:12.248Z,71.11
2018-11-29T10:10:41.913Z,71.32
2018-11-29T10:13:12.811Z,71.67
2018-11-29T10:15:43.180Z,70.84
2018-11-29T10:18:14.025Z,71.36
2018-11-29T10:20:44.354Z,70.86
2018-11-29T10:23:14.504Z,71.13
2018-11-29T10:25:44.692Z,71.25
2018-11-29T10:28:16.009Z,71.43
2018-11-29T10:30:53.636Z,70.01
2018-11-29T10:33:23.687Z,70.70
2018-11-29T10:35:58.925Z,70.97
2018-11-29T10:38:24.349Z,70.93
2018-11-29T10:40:55.231Z,71.23
2018-11-29T10:43:26.151Z,71.35
2018-11-29T10:45:56.605Z,71.11
2018-11-29T10:48:26.953Z,71.80
2018-11-29T10:50:57.265Z,71.89
2018-11-29T10:53:28.183Z,71.18
2018-11-29T10:55:58.302Z,71.84
2018-11-29T10:58:28.648Z,70.99
2018-11-29T11:01:03.521Z,70.79
2018-11-29T11:03:33.886Z,70.70
2018-11-29T11:06:04.280Z,71.58
2018-11-29T11:08:34.320Z,71.20
2018-11-29T11:11:09.010Z,70.94
2018-11-29T11:13:39.967Z,69.83
2018-11-29T11:16:10.215Z,69.53
2018-11-29T11:18:40.420Z,69.69
2018-11-29T11:21:10.523Z,71.40
2018-11-29T11:23:41.466Z,70.87
2018-11-29T11:26:11.514Z,70.63
2018-11-29T11:28:42.165Z,70.82
2018-11-29T11:31:12.793Z,71.09
2018-11-29T11:33:43.463Z,70.26
2018-11-29T11:36:14.621Z,70.99
2018-11-29T11:38:45.059Z,70.63
2018-11-29T11:41:15.947Z,70.94
2018-11-29T11:43:45.991Z,71.53
2018-11-29T11:46:16.281Z,71.61
2018-11-29T11:48:46.583Z,72.58
2018-11-29T11:51:16.599Z,71.98
2018-11-29T11:53:46.916Z,72.22
2018-11-29T11:56:17.652Z,69.84
2018-11-29T11:58:47.687Z,69.74
2018-11-29T12:01:17.932Z,70.60
2018-11-29T12:03:48.060Z,71.90
2018-11-29T12:06:18.279Z,71.17
2018-11-29T12:08:48.525Z,72.10
2018-11-29T12:11:19.561Z,72.22
2018-11-29T12:13:49.708Z,71.90
2018-11-29T12:16:23.513Z,72.74
2018-11-29T12:18:54.481Z,72.62
2018-11-29T12:21:25.137Z,72.08
2018-11-29T12:23:55.823Z,72.32
2018-11-29T12:26:25.924Z,72.77
2018-11-29T12:28:56.026Z,72.71
2018-11-29T12:31:26.633Z,73.93
2018-11-29T12:33:56.716Z,74.18
2018-11-29T12:36:26.926Z,74.80
2018-11-29T12:38:57.080Z,73.84
2018-11-29T12:41:29.735Z,74.33
2018-11-29T12:43:59.935Z,74.50
2018-11-29T12:46:32.051Z,74.98
2018-11-29T12:49:02.151Z,76.22
2018-11-29T12:51:32.560Z,75.09
2018-11-29T12:54:03.690Z,76.23
2018-11-29T12:56:33.870Z,76.76
2018-11-29T12:59:04.031Z,75.97
2018-11-29T13:01:34.106Z,75.65
2018-11-29T13:04:04.540Z,76.33
2018-11-29T13:06:34.922Z,76.15
2018-11-29T13:09:08.147Z,76.43
2018-11-29T13:11:38.419Z,76.54
2018-11-29T13:14:08.853Z,76.57
2018-11-29T13:16:38.833Z,77.23
2018-11-29T13:19:09.083Z,76.59
2018-11-29T13:21:39.272Z,77.28
2018-11-29T13:24:09.459Z,77.13
2018-11-29T13:26:39.820Z,76.65
2018-11-29T13:29:10.307Z,77.15
2018-11-29T13:31:40.302Z,77.30
2018-11-29T13:34:10.764Z,77.80
2018-11-29T13:36:40.769Z,77.38
2018-11-29T13:39:11.340Z,77.89
2018-11-29T13:41:41.402Z,77.14
2018-11-29T13:51:00.782Z,78.02
2018-11-29T13:53:30.838Z,77.61
2018-11-29T13:56:01.196Z,77.46
2018-11-29T13:58:31.481Z,77.70
2018-11-29T14:01:01.610Z,77.48
2018-11-29T14:03:31.940Z,78.41
2018-11-29T14:06:02.107Z,77.83
2018-11-29T14:08:32.380Z,77.90
2018-11-29T14:11:02.436Z,77.60
2018-11-29T14:13:32.725Z,77.47
2018-11-29T14:16:02.850Z,77.83
2018-11-29T14:18:32.886Z,78.15
2018-11-29T14:21:02.939Z,78.08
2018-11-29T14:23:34.075Z,78.57
2018-11-29T14:26:04.641Z,77.96
2018-11-29T14:28:34.759Z,78.30
2018-11-29T14:31:05.236Z,78.22
2018-11-29T14:33:36.876Z,78.14
2018-11-29T14:36:07.054Z,78.01
2018-11-29T14:38:39.004Z,77.87
2018-11-29T14:41:12.633Z,77.69
2018-11-29T14:43:44.062Z,77.65
2018-11-29T14:46:14.534Z,77.94
2018-11-29T14:48:44.913Z,77.82
2018-11-29T14:51:15.103Z,77.99
2018-11-29T14:53:45.160Z,77.94
2018-11-29T14:56:15.597Z,77.96
2018-11-29T14:58:45.824Z,77.60
2018-11-29T15:01:15.928Z,77.78
2018-11-29T15:03:46.248Z,77.86
2018-11-29T15:06:16.379Z,77.92
2018-11-29T15:08:46.512Z,77.48
2018-11-29T15:11:16.897Z,77.81
2018-11-29T15:13:46.959Z,77.95
2018-11-29T15:16:17.084Z,77.25
2018-11-29T15:18:47.321Z,77.37
2018-11-29T15:21:17.625Z,76.99
2018-11-29T15:23:48.313Z,77.08
2018-11-29T15:26:18.489Z,77.39
2018-11-29T15:28:50.413Z,76.84
2018-11-29T15:31:29.091Z,77.06
2018-11-29T15:34:11.510Z,76.80
2018-11-29T15:36:43.214Z,76.25
2018-11-29T15:39:12.912Z,76.23
2018-11-29T15:41:44.114Z,76.10
2018-11-29T15:44:15.045Z,76.01
2018-11-29T15:46:45.311Z,76.08
2018-11-29T15:49:15.505Z,76.16
2018-11-29T15:51:45.770Z,75.99
2018-11-29T15:54:16.187Z,76.09
2018-11-29T15:56:46.480Z,76.04
2018-11-29T15:59:17.246Z,76.04
2018-11-29T16:01:47.590Z,76.14
2018-11-29T16:04:22.964Z,76.13
2018-11-29T16:06:53.190Z,75.97
2018-11-29T16:09:23.763Z,75.94
2018-11-29T16:11:54.387Z,76.12
2018-11-29T16:14:25.465Z,76.21
2018-11-29T16:16:55.695Z,76.28
2018-11-29T16:19:27.886Z,75.99
2018-11-29T16:21:58.164Z,76.17
2018-11-29T16:24:28.469Z,76.49
2018-11-29T16:26:59.139Z,76.36
2018-11-29T16:29:29.793Z,76.18
2018-11-29T16:32:00.409Z,76.78
2018-11-29T16:34:30.768Z,76.67
2018-11-29T16:37:01.154Z,76.87
2018-11-29T16:39:32.365Z,76.72
2018-11-29T16:42:02.621Z,76.70
2018-11-29T16:44:32.842Z,76.91
2018-11-29T16:47:03.123Z,76.83
2018-11-29T16:49:34.264Z,77.00
2018-11-29T16:52:04.279Z,77.00
2018-11-29T16:54:35.321Z,76.65
2018-11-29T16:57:06.933Z,76.65
2018-11-29T16:59:37.793Z,76.60
2018-11-29T17:02:08.395Z,76.57
2018-11-29T17:04:44.849Z,76.92
2018-11-29T17:07:15.405Z,77.07
2018-11-29T17:09:45.473Z,76.79
2018-11-29T17:12:17.009Z,76.57
2018-11-29T17:14:47.512Z,76.46
2018-11-29T17:17:18.049Z,76.92
2018-11-29T17:19:48.792Z,77.07
2018-11-29T17:22:20.007Z,76.90
2018-11-29T17:24:51.340Z,76.63
2018-11-29T17:27:22.679Z,76.28
2018-11-29T17:29:52.968Z,77.04
2018-11-29T17:32:23.378Z,76.80
2018-11-29T17:34:54.385Z,76.75
2018-11-29T17:37:25.567Z,76.68
2018-11-29T17:39:55.912Z,76.60
2018-11-29T17:42:27.424Z,76.93
2018-11-29T17:44:58.210Z,76.97
2018-11-29T17:47:28.560Z,76.75
2018-11-29T17:49:58.873Z,76.68
2018-11-29T17:52:29.730Z,77.02
2018-11-29T17:55:00.419Z,76.55
2018-11-29T17:57:31.598Z,76.72
2018-11-29T18:00:02.903Z,76.75
2018-11-29T18:02:33.472Z,76.61
2018-11-29T18:05:03.939Z,76.79
2018-11-29T18:07:37.970Z,76.24
2018-11-29T18:10:25.591Z,76.57
2018-11-29T18:13:00.262Z,76.26
2018-11-29T18:15:34.271Z,76.64
2018-11-29T18:18:06.872Z,76.29
2018-11-29T18:20:38.635Z,76.23
2018-11-29T18:23:09.688Z,76.49
2018-11-29T18:25:40.118Z,76.46
2018-11-29T18:28:11.023Z,76.51
2018-11-29T18:30:42.157Z,76.67
2018-11-29T18:33:12.331Z,76.80
2018-11-29T18:35:43.533Z,76.46
2018-11-29T18:38:13.694Z,76.65
2018-11-29T18:40:43.952Z,76.54
2018-11-29T18:43:14.204Z,76.94
2018-11-29T18:45:44.520Z,77.23
2018-11-29T18:48:14.841Z,76.87
2018-11-29T18:50:45.384Z,77.35
2018-11-29T18:53:15.692Z,77.28
2018-11-29T18:55:49.779Z,77.23
2018-11-29T18:58:20.423Z,77.59
2018-11-29T19:00:52.169Z,77.61
2018-11-29T19:03:22.501Z,77.57
2018-11-29T19:05:53.300Z,77.70
2018-11-29T19:08:23.901Z,77.62
2018-11-29T19:10:55.875Z,77.92
2018-11-29T19:13:26.449Z,77.89
2018-11-29T19:15:56.586Z,77.97
2018-11-29T19:18:26.940Z,78.12
2018-11-29T19:20:57.268Z,77.89
2018-11-29T19:23:28.638Z,77.97
2018-11-29T19:25:59.631Z,78.23
2018-11-29T19:28:29.974Z,78.24
2018-11-29T19:31:00.948Z,78.33
2018-11-29T19:33:32.955Z,78.46
2018-11-29T19:36:04.840Z,78.50
2018-11-29T19:38:35.799Z,78.66
2018-11-29T19:41:06.959Z,78.70
2018-11-29T19:43:37.915Z,78.91
2018-11-29T19:46:09.707Z,78.88
2018-11-29T19:48:42.076Z,78.89
2018-11-29T19:51:12.112Z,78.92
2018-11-29T19:53:42.606Z,79.25
2018-11-29T19:56:12.676Z,79.20
2018-11-29T19:58:47.906Z,79.30
2018-11-29T20:01:18.740Z,79.27
2018-11-29T20:03:52.326Z,79.36
2018-11-29T20:06:33.765Z,79.26
2018-11-29T20:09:04.296Z,79.11
2018-11-29T20:11:34.666Z,79.12
2018-11-29T20:14:05.854Z,79.68
2018-11-29T20:16:36.335Z,79.48
2018-11-29T20:19:07.716Z,79.31
2018-11-29T20:21:38.967Z,79.22
2018-11-29T20:24:09.284Z,79.42
2018-11-29T20:26:39.685Z,79.25
2018-11-29T20:29:09.840Z,79.76
2018-11-29T20:31:42.786Z,79.69
2018-11-29T20:34:13.255Z,79.65
2018-11-29T20:36:43.088Z,79.81
2018-11-29T20:39:13.319Z,80.11
2018-11-29T20:41:43.505Z,80.07
2018-11-29T20:44:13.672Z,80.10
2018-11-29T20:46:43.721Z,80.31
2018-11-29T20:49:14.723Z,80.46
2018-11-29T20:51:45.097Z,80.47
2018-11-29T20:54:15.253Z,80.23
2018-11-29T20:56:45.619Z,80.65
2018-11-29T20:59:15.685Z,80.50
2018-11-29T21:01:46.292Z,80.69
2018-11-29T21:04:16.664Z,80.47
2018-11-29T21:06:46.734Z,80.74
2018-11-29T21:09:17.056Z,80.87
2018-11-29T21:11:47.861Z,81.08
2018-11-29T21:14:17.656Z,81.01
2018-11-29T21:16:49.039Z,81.24
2018-11-29T21:19:19.253Z,81.18
2018-11-29T21:21:49.262Z,81.10
2018-11-29T21:24:19.390Z,81.09
2018-11-29T21:26:50.669Z,81.35
2018-11-29T21:29:20.748Z,81.49
2018-11-29T21:34:23.688Z,81.48
2018-11-29T21:36:53.992Z,81.62
2018-11-29T21:39:24.196Z,81.59
2018-11-29T21:41:54.443Z,81.89
2018-11-29T21:44:26.049Z,81.64
2018-11-29T21:46:56.291Z,81.92
2018-11-29T21:49:26.360Z,81.71
2018-11-29T21:51:56.632Z,81.84
2018-11-29T21:54:26.942Z,82.05
2018-11-29T21:56:56.931Z,82.34
2018-11-29T21:59:26.983Z,82.79
2018-11-29T22:01:56.973Z,82.78
2018-11-29T22:04:27.540Z,82.32
2018-11-29T22:06:57.676Z,82.23
2018-11-29T22:09:27.824Z,82.44
2018-11-29T22:11:58.017Z,82.58
2018-11-29T22:14:28.023Z,82.42
2018-11-29T22:16:58.169Z,82.32
2018-11-29T22:19:28.639Z,82.44
2018-11-29T22:21:58.858Z,82.55
2018-11-29T22:24:30.103Z,82.68
2018-11-29T22:27:00.193Z,82.50
2018-11-29T22:29:30.548Z,82.40
2018-11-29T22:32:01.924Z,82.10
2018-11-29T22:34:32.066Z,82.37
2018-11-29T22:37:02.279Z,82.16
2018-11-29T22:39:32.552Z,82.25
2018-11-29T22:42:02.756Z,82.40
2018-11-29T22:44:32.823Z,82.37
2018-11-29T22:47:02.886Z,82.63
2018-11-29T22:49:33.064Z,82.71
2018-11-29T22:52:03.257Z,82.56
2018-11-29T22:54:33.290Z,82.68
2018-11-29T22:57:03.514Z,82.66
2018-11-29T22:59:33.794Z,82.76
2018-11-29T23:02:04.351Z,82.72
2018-11-29T23:04:34.811Z,82.90
2018-11-29T23:07:05.002Z,82.80
2018-11-29T23:09:35.180Z,82.62
2018-11-29T23:12:05.374Z,82.80
2018-11-29T23:14:36.127Z,82.79
2018-11-29T23:17:07.322Z,82.92
2018-11-29T23:19:37.501Z,83.11
2018-11-29T23:22:08.296Z,83.08
2018-11-29T23:24:39.547Z,83.22
2018-11-29T23:27:10.490Z,83.24
2018-11-29T23:29:40.867Z,82.93
2018-11-29T23:32:11.039Z,82.95
2018-11-29T23:34:41.155Z,82.78
2018-11-29T23:37:11.399Z,82.83
2018-11-29T23:39:42.398Z,83.04
2018-11-29T23:42:12.669Z,83.14
2018-11-29T23:44:42.735Z,82.82
2018-11-29T23:47:12.661Z,82.61
2018-11-29T23:49:42.696Z,82.63
2018-11-29T23:52:12.769Z,82.73
2018-11-29T23:54:42.828Z,82.37
2018-11-29T23:57:13.067Z,82.63
2018-11-29T23:59:43.286Z,82.87
